Air Navigation Services of Czech Republic
Airport: LKTB Updated:  23.09.2017 23:09:04  UTC
 METAR LKTB 23.09. 23:00 ...
METAR LKTB 232300Z VRB02KT 9999 OVC034 12/11 Q1019 NOSIG RMK REG QNH 1016=
 TAF LKTB 23.09. 23:00 ...
TAF LKTB 232300Z 2400/2506 VRB02KT 9999 BKN033      TEMPO 2400/2410 5000 -RA BR BKN023      TEMPO 2410/2416 31010KT 5000 -SHRA BKN030TCU      PROB30 TEMPO 2410/2416 -TSRA BKN023CB      BECMG 2416/2419 6000 BKN030=